Saugatuck, Connecticut
Current Conditions -  °F | °C
As of 9:52 PM on Saturday 24 Jan 2015 (Local Time) from KBDR Reporting Station
Clear Clear  
Wind Chill: 26°   Ceiling: Unl
Heat Index: 33°   Visibility: 10mi
Dew Point: 29°   Wind: 8mph
Humidity: 85%   Direction: 290°WNW
Pressure: 29.39"   Gusts: NA
Location:  41.1454°N, 73.3462°W
Report Text: KBDR 250252Z 29007KT 10SM CLR 01/M02 A2939 RMK AO2 SLP952 T00061017 53023
Loading
Personal Weather Stations






























Interactive Weather Map New forecast layout! Learn more

10-Day Weather Forecast

Advertisements
Track Severe Weather on mobile